createdAt,value
2023-02-09T00:00:03.879Z,995.26
2023-02-09T00:01:03.874Z,995.26
2023-02-09T00:02:03.996Z,995.32
2023-02-09T00:03:03.949Z,995.37
2023-02-09T00:04:04.101Z,995.37
2023-02-09T00:05:03.861Z,995.18
2023-02-09T00:06:02.929Z,995.45
2023-02-09T00:07:02.965Z,995.34
2023-02-09T00:08:03.070Z,995.37
2023-02-09T00:09:03.195Z,995.54
2023-02-09T00:10:03.065Z,995.32
2023-02-09T00:11:03.030Z,995.32
2023-02-09T00:12:03.022Z,995.29
2023-02-09T00:13:03.023Z,995.18
2023-02-09T00:14:03.133Z,995.23
2023-02-09T00:15:03.212Z,995.18
2023-02-09T00:16:03.331Z,995.20
2023-02-09T00:17:03.322Z,995.15
2023-02-09T00:18:03.355Z,995.23
2023-02-09T00:19:03.319Z,995.23
2023-02-09T00:20:03.254Z,995.12
2023-02-09T00:21:03.232Z,995.23
2023-02-09T00:22:03.336Z,995.26
2023-02-09T00:23:03.233Z,995.09
2023-02-09T00:24:03.165Z,995.23
2023-02-09T00:25:03.186Z,995.18
2023-02-09T00:26:03.140Z,995.12
2023-02-09T00:27:03.146Z,995.04
2023-02-09T00:28:03.245Z,995.18
2023-02-09T00:29:03.139Z,995.04
2023-02-09T00:30:03.177Z,995.07
2023-02-09T00:31:03.201Z,995.34
2023-02-09T00:32:03.152Z,995.18
2023-02-09T00:33:03.014Z,995.18
2023-02-09T00:34:03.017Z,995.20
2023-02-09T00:35:03.092Z,995.20
2023-02-09T00:36:03.138Z,995.26
2023-02-09T00:37:03.025Z,995.29
2023-02-09T00:38:03.082Z,995.23
2023-02-09T00:39:03.209Z,995.18
2023-02-09T00:40:03.175Z,995.40
2023-02-09T00:41:03.226Z,995.20
2023-02-09T00:42:03.212Z,995.26
2023-02-09T00:43:03.352Z,995.21
2023-02-09T00:44:03.422Z,995.21
2023-02-09T00:45:03.585Z,995.34
2023-02-09T00:46:03.616Z,995.29
2023-02-09T00:47:03.567Z,995.26
2023-02-09T00:48:03.524Z,995.10
2023-02-09T00:49:03.570Z,995.21
2023-02-09T00:50:03.639Z,995.26
2023-02-09T00:51:03.633Z,995.26
2023-02-09T00:52:03.601Z,995.26
2023-02-09T00:53:03.612Z,995.29
2023-02-09T00:54:03.535Z,994.99
2023-02-09T00:55:03.520Z,995.18
2023-02-09T00:56:03.481Z,995.26
2023-02-09T00:57:03.423Z,995.15
2023-02-09T00:58:03.356Z,995.21
2023-02-09T00:59:03.399Z,995.24
2023-02-09T01:00:03.465Z,995.13
2023-02-09T01:01:03.535Z,995.13
2023-02-09T01:02:03.504Z,995.13
2023-02-09T01:03:03.504Z,995.13
2023-02-09T01:04:03.445Z,995.13
2023-02-09T01:05:03.670Z,995.18
2023-02-09T01:06:03.585Z,995.26
2023-02-09T01:07:03.559Z,995.04
2023-02-09T01:08:03.452Z,995.21
2023-02-09T01:09:03.601Z,995.16
2023-02-09T01:10:03.962Z,995.10
2023-02-09T01:11:03.160Z,995.13
2023-02-09T01:12:03.076Z,995.10
2023-02-09T01:13:03.122Z,995.02
2023-02-09T01:14:03.082Z,995.07
2023-02-09T01:15:03.172Z,995.16
2023-02-09T01:16:03.116Z,995.07
2023-02-09T01:17:03.364Z,995.21
2023-02-09T01:18:03.268Z,995.13
2023-02-09T01:19:03.208Z,995.21
2023-02-09T01:20:03.337Z,995.16
2023-02-09T01:21:03.233Z,995.16
2023-02-09T01:22:03.188Z,995.10
2023-02-09T01:23:03.172Z,995.16
2023-02-09T01:24:03.235Z,995.07
2023-02-09T01:25:03.278Z,995.19
2023-02-09T01:26:03.130Z,995.16
2023-02-09T01:27:03.186Z,995.19
2023-02-09T01:28:03.261Z,995.19
2023-02-09T01:29:03.181Z,995.19
2023-02-09T01:30:03.188Z,995.24
2023-02-09T01:31:03.470Z,995.16
2023-02-09T01:32:03.608Z,995.24
2023-02-09T01:33:03.191Z,995.10
2023-02-09T01:34:03.246Z,995.10
2023-02-09T01:35:03.176Z,995.08
2023-02-09T01:36:03.235Z,995.19
2023-02-09T01:37:03.156Z,995.19
2023-02-09T01:38:03.072Z,995.08
2023-02-09T01:39:03.213Z,995.00
2023-02-09T01:40:03.236Z,995.13
2023-02-09T01:41:03.177Z,995.08
2023-02-09T01:42:03.155Z,995.08
2023-02-09T01:43:03.250Z,995.00
2023-02-09T01:44:03.229Z,994.97
2023-02-09T01:45:03.140Z,995.02
2023-02-09T01:46:03.131Z,995.05
2023-02-09T01:47:03.079Z,994.97
2023-02-09T01:48:03.286Z,995.16
2023-02-09T01:49:03.170Z,994.86
2023-02-09T01:50:03.224Z,995.11
2023-02-09T01:51:03.449Z,994.86
2023-02-09T01:52:03.528Z,994.97
2023-02-09T01:53:03.569Z,994.89
2023-02-09T01:54:03.553Z,994.78
2023-02-09T01:55:03.590Z,994.78
2023-02-09T01:56:03.613Z,994.72
2023-02-09T01:57:03.601Z,994.92
2023-02-09T01:58:03.581Z,994.78
2023-02-09T01:59:03.719Z,994.75
2023-02-09T02:00:03.705Z,994.78
2023-02-09T02:01:03.707Z,994.81
2023-02-09T02:02:03.600Z,994.65
2023-02-09T02:03:03.605Z,994.70
2023-02-09T02:04:03.527Z,994.68
2023-02-09T02:05:03.570Z,994.75
2023-02-09T02:06:03.558Z,994.60
2023-02-09T02:07:03.444Z,994.60
2023-02-09T02:08:03.817Z,994.65
2023-02-09T02:09:03.890Z,994.78
2023-02-09T02:10:03.875Z,994.60
2023-02-09T02:11:03.843Z,994.60
2023-02-09T02:12:03.979Z,994.57
2023-02-09T02:13:02.938Z,994.73
2023-02-09T02:14:02.993Z,994.60
2023-02-09T02:15:02.977Z,994.68
2023-02-09T02:16:03.191Z,994.63
2023-02-09T02:17:03.061Z,994.63
2023-02-09T02:18:02.945Z,994.55
2023-02-09T02:19:03.041Z,994.68
2023-02-09T02:20:03.026Z,994.66
2023-02-09T02:21:02.984Z,994.73
2023-02-09T02:22:03.066Z,994.55
2023-02-09T02:23:03.074Z,994.55
2023-02-09T02:24:03.390Z,994.57
2023-02-09T02:25:03.332Z,994.49
2023-02-09T02:26:03.333Z,994.52
2023-02-09T02:27:03.234Z,994.63
2023-02-09T02:28:03.334Z,994.52
2023-02-09T02:29:03.253Z,994.41
2023-02-09T02:30:03.268Z,994.44
2023-02-09T02:31:03.427Z,994.52
2023-02-09T02:32:03.204Z,994.52
2023-02-09T02:33:03.109Z,994.49
2023-02-09T02:34:03.114Z,994.66
2023-02-09T02:35:03.291Z,994.70
2023-02-09T02:36:03.193Z,994.49
2023-02-09T02:37:03.189Z,994.55
2023-02-09T02:38:03.276Z,994.68
2023-02-09T02:39:03.388Z,994.63
2023-02-09T02:40:03.413Z,994.55
2023-02-09T02:41:03.369Z,994.41
2023-02-09T02:42:03.481Z,994.47
2023-02-09T02:43:03.517Z,994.47
2023-02-09T02:44:03.493Z,994.41
2023-02-09T02:45:03.699Z,994.28
2023-02-09T02:46:03.056Z,994.28
2023-02-09T02:47:03.960Z,994.44
2023-02-09T02:48:03.897Z,994.33
2023-02-09T02:49:03.827Z,994.44
2023-02-09T02:50:03.946Z,994.47
2023-02-09T02:51:04.092Z,994.47
2023-02-09T02:52:03.933Z,994.44
2023-02-09T02:53:02.952Z,994.36
2023-02-09T02:54:03.880Z,994.36
2023-02-09T02:55:03.053Z,994.44
2023-02-09T02:56:02.960Z,994.36
2023-02-09T02:57:02.986Z,994.36
2023-02-09T02:58:03.924Z,994.42
2023-02-09T02:59:03.871Z,994.25
2023-02-09T03:00:02.905Z,994.39
2023-02-09T03:01:03.020Z,994.39
2023-02-09T03:02:02.890Z,994.31
2023-02-09T03:03:02.965Z,994.20
2023-02-09T03:04:03.002Z,994.28
2023-02-09T03:05:03.020Z,994.25
2023-02-09T03:06:03.127Z,994.42
2023-02-09T03:07:03.041Z,994.36
2023-02-09T03:08:03.078Z,994.36
2023-02-09T03:09:03.794Z,994.20
2023-02-09T03:10:04.006Z,994.22
2023-02-09T03:11:03.880Z,994.33
2023-02-09T03:12:03.889Z,994.20
2023-02-09T03:13:03.084Z,994.22
2023-02-09T03:14:03.124Z,994.25
2023-02-09T03:15:03.094Z,994.23
2023-02-09T03:16:03.223Z,994.20
2023-02-09T03:17:03.197Z,994.28
2023-02-09T03:18:03.188Z,994.14
2023-02-09T03:19:03.251Z,994.12
2023-02-09T03:20:03.219Z,993.98
2023-02-09T03:21:03.180Z,994.06
2023-02-09T03:22:04.247Z,994.17
2023-02-09T03:23:03.225Z,994.14
2023-02-09T03:24:03.328Z,994.20
2023-02-09T03:25:03.404Z,994.01
2023-02-09T03:26:03.344Z,994.09
2023-02-09T03:27:03.425Z,994.09
2023-02-09T03:28:03.433Z,994.03
2023-02-09T03:29:03.385Z,994.17
2023-02-09T03:30:03.415Z,994.06
2023-02-09T03:31:03.793Z,994.06
2023-02-09T03:32:03.565Z,994.01
2023-02-09T03:33:03.525Z,993.87
2023-02-09T03:34:03.461Z,993.98
2023-02-09T03:35:03.559Z,993.87
2023-02-09T03:36:03.567Z,993.95
2023-02-09T03:37:03.506Z,993.95
2023-02-09T03:38:03.548Z,993.93
2023-02-09T03:39:03.613Z,993.93
2023-02-09T03:40:03.509Z,993.90
2023-02-09T03:41:03.479Z,993.90
2023-02-09T03:42:03.578Z,994.01
2023-02-09T03:43:03.721Z,993.96
2023-02-09T03:44:03.656Z,993.85
2023-02-09T03:45:03.681Z,993.87
2023-02-09T03:46:03.620Z,993.98
2023-02-09T03:47:03.598Z,994.04
2023-02-09T03:48:03.599Z,993.82
2023-02-09T03:49:03.618Z,993.85
2023-02-09T03:50:03.658Z,993.79
2023-02-09T03:51:03.652Z,993.96
2023-02-09T03:52:03.709Z,993.98
2023-02-09T03:53:03.567Z,993.79
2023-02-09T03:54:03.569Z,993.82
2023-02-09T03:55:03.563Z,993.93
2023-02-09T03:56:03.551Z,994.01
2023-02-09T03:57:03.544Z,993.95
2023-02-09T03:58:03.486Z,993.93
2023-02-09T03:59:03.582Z,993.93
2023-02-09T04:00:03.592Z,993.87
2023-02-09T04:01:03.661Z,993.90
2023-02-09T04:02:03.734Z,993.87
2023-02-09T04:03:03.688Z,993.79
2023-02-09T04:04:03.538Z,993.82
2023-02-09T04:05:06.149Z,993.82
2023-02-09T04:06:03.646Z,993.98
2023-02-09T04:07:03.584Z,993.90
2023-02-09T04:08:02.978Z,993.96
2023-02-09T04:09:02.908Z,993.98
2023-02-09T04:10:02.966Z,993.96
2023-02-09T04:11:03.096Z,993.95
2023-02-09T04:12:03.136Z,993.93
2023-02-09T04:13:03.129Z,993.82
2023-02-09T04:14:03.212Z,993.71
2023-02-09T04:15:03.109Z,993.84
2023-02-09T04:16:03.204Z,993.95
2023-02-09T04:17:03.151Z,994.01
2023-02-09T04:18:03.233Z,993.82
2023-02-09T04:19:03.324Z,993.79
2023-02-09T04:20:03.416Z,993.65
2023-02-09T04:21:03.387Z,993.79
2023-02-09T04:22:03.403Z,993.76
2023-02-09T04:23:03.441Z,993.65
2023-02-09T04:24:03.456Z,993.76
2023-02-09T04:25:03.469Z,993.87
2023-02-09T04:26:03.418Z,993.76
2023-02-09T04:27:03.448Z,993.79
2023-02-09T04:28:03.646Z,993.90
2023-02-09T04:29:03.656Z,993.93
2023-02-09T04:30:03.562Z,993.79
2023-02-09T04:31:03.799Z,993.90
2023-02-09T04:32:03.752Z,993.79
2023-02-09T04:33:03.539Z,993.93
2023-02-09T04:34:03.611Z,993.84
2023-02-09T04:35:03.541Z,993.79
2023-02-09T04:36:03.639Z,993.95
2023-02-09T04:37:03.692Z,993.98
2023-02-09T04:38:03.626Z,994.01
2023-02-09T04:39:03.704Z,993.84
2023-02-09T04:40:04.969Z,993.84
2023-02-09T04:41:03.604Z,993.73
2023-02-09T04:42:03.570Z,993.90
2023-02-09T04:43:03.660Z,993.76
2023-02-09T04:44:03.678Z,993.87
2023-02-09T04:45:03.704Z,993.85
2023-02-09T04:46:03.835Z,993.74
2023-02-09T04:47:03.676Z,993.68
2023-02-09T04:48:03.622Z,993.79
2023-02-09T04:49:03.597Z,993.68
2023-02-09T04:50:03.631Z,993.74
2023-02-09T04:51:03.684Z,993.90
2023-02-09T04:52:03.654Z,993.68
2023-02-09T04:53:03.661Z,993.82
2023-02-09T04:54:03.665Z,993.71
2023-02-09T04:55:03.708Z,993.87
2023-02-09T04:56:03.842Z,993.52
2023-02-09T04:57:03.837Z,993.63
2023-02-09T04:58:03.826Z,993.76
2023-02-09T04:59:03.864Z,993.68
2023-02-09T05:00:03.813Z,993.76
2023-02-09T05:01:04.071Z,993.65
2023-02-09T05:02:03.824Z,993.60
2023-02-09T05:03:03.833Z,993.65
2023-02-09T05:04:03.834Z,993.60
2023-02-09T05:05:03.805Z,993.52
2023-02-09T05:06:03.776Z,993.57
2023-02-09T05:07:03.838Z,993.49
2023-02-09T05:08:03.761Z,993.55
2023-02-09T05:09:03.716Z,993.55
2023-02-09T05:10:03.720Z,993.46
2023-02-09T05:11:03.667Z,993.44
2023-02-09T05:12:03.802Z,993.49
2023-02-09T05:13:03.758Z,993.55
2023-02-09T05:14:03.780Z,993.35
2023-02-09T05:15:03.647Z,993.35
2023-02-09T05:16:03.675Z,993.66
2023-02-09T05:17:03.649Z,993.46
2023-02-09T05:18:03.568Z,993.46
2023-02-09T05:19:03.599Z,993.41
2023-02-09T05:20:03.749Z,993.49
2023-02-09T05:21:03.539Z,993.44
2023-02-09T05:22:03.561Z,993.63
2023-02-09T05:23:03.593Z,993.52
2023-02-09T05:24:03.692Z,993.60
2023-02-09T05:25:03.836Z,993.41
2023-02-09T05:26:03.771Z,993.49
2023-02-09T05:27:03.871Z,993.49
2023-02-09T05:28:03.960Z,993.63
2023-02-09T05:29:03.887Z,993.55
2023-02-09T05:30:03.797Z,993.52
2023-02-09T05:31:03.926Z,993.60
2023-02-09T05:32:04.104Z,993.55
2023-02-09T05:33:03.896Z,993.49
2023-02-09T05:34:02.947Z,993.63
2023-02-09T05:35:02.938Z,993.49
2023-02-09T05:36:03.058Z,993.49
2023-02-09T05:37:02.989Z,993.44
2023-02-09T05:38:02.996Z,993.49
2023-02-09T05:39:04.026Z,993.41
2023-02-09T05:40:03.006Z,993.52
2023-02-09T05:41:03.952Z,993.44
2023-02-09T05:42:03.946Z,993.33
2023-02-09T05:43:03.833Z,993.36
2023-02-09T05:44:03.895Z,993.44
2023-02-09T05:45:03.922Z,993.38
2023-02-09T05:46:07.858Z,993.36
2023-02-09T05:47:03.801Z,993.52
2023-02-09T05:48:03.947Z,993.55
2023-02-09T05:49:03.881Z,993.47
2023-02-09T05:50:03.884Z,993.60
2023-02-09T05:51:03.928Z,993.49
2023-02-09T05:52:02.995Z,993.58
2023-02-09T05:53:02.997Z,993.38
2023-02-09T05:54:02.932Z,993.55
2023-02-09T05:55:03.076Z,993.41
2023-02-09T05:56:03.051Z,993.47
2023-02-09T05:57:03.155Z,993.44
2023-02-09T05:58:03.122Z,993.49
2023-02-09T05:59:04.958Z,993.55
2023-02-09T06:00:03.116Z,993.55
2023-02-09T06:01:03.090Z,993.49
2023-02-09T06:02:03.264Z,993.47
2023-02-09T06:03:03.079Z,993.47
2023-02-09T06:04:03.036Z,993.38
2023-02-09T06:05:03.132Z,993.58
2023-02-09T06:06:03.094Z,993.36
2023-02-09T06:07:03.210Z,993.38
2023-02-09T06:09:03.057Z,993.30
2023-02-09T06:10:03.182Z,993.47
2023-02-09T06:11:03.142Z,993.38
2023-02-09T06:12:03.157Z,993.30
2023-02-09T06:13:03.216Z,993.27
2023-02-09T06:14:03.271Z,993.36
2023-02-09T06:15:03.265Z,993.44
2023-02-09T06:16:03.457Z,993.41
2023-02-09T06:17:03.414Z,993.41
2023-02-09T06:18:03.422Z,993.69
2023-02-09T06:19:03.579Z,993.47
2023-02-09T06:20:03.426Z,993.33
2023-02-09T06:21:03.507Z,993.27
2023-02-09T06:22:03.448Z,993.44
2023-02-09T06:23:03.533Z,993.27
2023-02-09T06:24:03.456Z,993.27
2023-02-09T06:25:03.541Z,993.41
2023-02-09T06:26:03.828Z,993.41
2023-02-09T06:27:04.674Z,993.52
2023-02-09T06:28:03.283Z,993.47
2023-02-09T06:29:03.213Z,993.49
2023-02-09T06:30:03.191Z,993.55
2023-02-09T06:31:03.349Z,993.55
2023-02-09T06:32:03.495Z,993.58
2023-02-09T06:33:03.228Z,993.36
2023-02-09T06:34:03.274Z,993.52
2023-02-09T06:35:03.196Z,993.30
2023-02-09T06:36:03.217Z,993.55
2023-02-09T06:37:03.443Z,993.47
2023-02-09T06:38:03.267Z,993.47
2023-02-09T06:39:03.230Z,993.49
2023-02-09T06:40:03.195Z,993.38
2023-02-09T06:41:03.158Z,993.44
2023-02-09T06:42:03.183Z,993.38
2023-02-09T06:43:03.160Z,993.58
2023-02-09T06:44:03.412Z,993.63
2023-02-09T06:45:03.177Z,993.49
2023-02-09T06:46:03.198Z,993.49
2023-02-09T06:47:03.087Z,993.41
2023-02-09T06:48:03.252Z,993.33
2023-02-09T06:49:03.167Z,993.57
2023-02-09T06:50:03.263Z,993.41
2023-02-09T06:51:03.028Z,993.49
2023-02-09T06:52:03.089Z,993.52
2023-02-09T06:53:03.047Z,993.44
2023-02-09T06:54:03.202Z,993.57
2023-02-09T06:55:03.150Z,993.63
2023-02-09T06:56:03.152Z,993.68
2023-02-09T06:57:03.158Z,993.60
2023-02-09T06:58:03.420Z,993.54
2023-02-09T06:59:03.121Z,993.52
2023-02-09T07:00:03.088Z,993.68
2023-02-09T07:01:02.994Z,993.57
2023-02-09T07:02:03.145Z,993.68
2023-02-09T07:04:02.924Z,993.79
2023-02-09T07:05:02.975Z,993.68
2023-02-09T07:06:03.192Z,993.62
2023-02-09T07:07:03.161Z,993.51
2023-02-09T07:08:03.191Z,993.60
2023-02-09T07:09:03.327Z,993.65
2023-02-09T07:10:03.337Z,993.70
2023-02-09T07:11:03.298Z,993.57
2023-02-09T07:12:03.499Z,993.73
2023-02-09T07:13:03.641Z,993.59
2023-02-09T07:14:03.522Z,993.62
2023-02-09T07:15:03.516Z,993.62
2023-02-09T07:16:03.564Z,993.57
2023-02-09T07:17:03.626Z,993.68
2023-02-09T07:18:03.593Z,993.51
2023-02-09T07:19:03.435Z,993.62
2023-02-09T07:20:03.369Z,993.62
2023-02-09T07:21:03.383Z,993.59
2023-02-09T07:22:03.440Z,993.51
2023-02-09T07:23:03.675Z,993.64
2023-02-09T07:24:03.718Z,993.62
2023-02-09T07:25:03.839Z,993.62
2023-02-09T07:26:03.775Z,993.61
2023-02-09T07:27:02.964Z,993.67
2023-02-09T07:28:03.965Z,993.64
2023-02-09T07:29:03.074Z,993.69
2023-02-09T07:30:03.910Z,993.75
2023-02-09T07:31:03.403Z,993.77
2023-02-09T07:32:03.109Z,993.91
2023-02-09T07:33:03.962Z,993.83
2023-02-09T07:34:03.881Z,993.77
2023-02-09T07:35:03.848Z,993.63
2023-02-09T07:37:03.189Z,993.66
2023-02-09T07:38:03.233Z,993.66
2023-02-09T07:39:03.226Z,993.60
2023-02-09T07:40:03.126Z,993.71
2023-02-09T07:41:03.159Z,993.82
2023-02-09T07:42:03.201Z,993.79
2023-02-09T07:43:03.176Z,993.82
2023-02-09T07:44:03.101Z,993.74
2023-02-09T07:45:03.130Z,993.71
2023-02-09T07:46:03.175Z,993.77
2023-02-09T07:47:03.273Z,993.79
2023-02-09T07:48:03.148Z,993.90
2023-02-09T07:49:03.193Z,993.79
2023-02-09T07:50:03.286Z,993.85
2023-02-09T07:51:03.351Z,993.82
2023-02-09T07:52:03.313Z,993.71
2023-02-09T07:53:03.232Z,993.71
2023-02-09T07:54:03.244Z,993.76
2023-02-09T07:55:03.211Z,993.73
2023-02-09T07:56:03.172Z,993.82
2023-02-09T07:57:03.187Z,993.84
2023-02-09T07:58:03.209Z,993.90
2023-02-09T07:59:03.103Z,993.73
2023-02-09T08:00:03.310Z,993.87
2023-02-09T08:01:03.240Z,993.89
2023-02-09T08:02:03.472Z,993.84
2023-02-09T08:03:03.280Z,993.95
2023-02-09T08:04:03.355Z,993.86
2023-02-09T08:05:03.418Z,993.97
2023-02-09T08:06:03.299Z,994.00
2023-02-09T08:07:03.323Z,994.00
2023-02-09T08:08:03.444Z,994.03
2023-02-09T08:09:03.439Z,994.00
2023-02-09T08:10:03.541Z,993.94
2023-02-09T08:11:03.462Z,994.05
2023-02-09T08:12:03.843Z,994.05
2023-02-09T08:13:03.564Z,993.91
2023-02-09T08:14:03.544Z,994.02
2023-02-09T08:15:03.464Z,994.16
2023-02-09T08:16:03.451Z,993.97
2023-02-09T08:17:03.571Z,994.08
2023-02-09T08:18:03.487Z,994.24
2023-02-09T08:19:03.486Z,993.97
2023-02-09T08:20:03.564Z,994.10
2023-02-09T08:21:03.650Z,994.13
2023-02-09T08:22:03.728Z,993.99
2023-02-09T08:23:03.776Z,994.16
2023-02-09T08:24:03.708Z,994.13
2023-02-09T08:25:03.727Z,994.16
2023-02-09T08:26:03.702Z,994.10
2023-02-09T08:27:03.583Z,994.16
2023-02-09T08:28:03.863Z,994.24
2023-02-09T08:29:03.657Z,994.30
2023-02-09T08:30:03.602Z,994.32
2023-02-09T08:31:03.912Z,994.21
2023-02-09T08:32:03.142Z,994.30
2023-02-09T08:33:03.014Z,994.30
2023-02-09T08:34:03.000Z,994.46
2023-02-09T08:37:03.013Z,994.27
2023-02-09T08:38:03.042Z,994.32
2023-02-09T08:39:03.210Z,994.27
2023-02-09T08:41:03.365Z,994.24
2023-02-09T08:42:03.250Z,994.24
2023-02-09T08:43:03.324Z,994.32
2023-02-09T08:44:03.323Z,994.40
2023-02-09T08:45:03.275Z,994.21
2023-02-09T08:46:03.444Z,994.29
2023-02-09T08:47:03.583Z,994.32
2023-02-09T08:48:03.320Z,994.15
2023-02-09T08:49:03.445Z,994.26
2023-02-09T08:50:03.395Z,994.18
2023-02-09T08:51:03.367Z,994.18
2023-02-09T08:52:03.461Z,994.15
2023-02-09T08:53:03.359Z,994.32
2023-02-09T08:54:03.455Z,994.21
2023-02-09T08:55:03.553Z,994.23
2023-02-09T08:56:03.483Z,994.26
2023-02-09T08:57:03.388Z,994.18
2023-02-09T08:58:03.481Z,994.23
2023-02-09T08:59:03.455Z,994.20
2023-02-09T09:00:03.463Z,994.09
2023-02-09T09:01:03.698Z,994.20
2023-02-09T09:02:03.469Z,994.20
2023-02-09T09:03:03.448Z,994.29
2023-02-09T09:04:03.703Z,994.26
2023-02-09T09:05:03.640Z,994.20
2023-02-09T09:06:03.651Z,994.15
2023-02-09T09:07:03.644Z,994.12
2023-02-09T09:08:03.660Z,994.23
2023-02-09T09:09:03.574Z,994.25
2023-02-09T09:10:03.538Z,994.23
2023-02-09T09:11:03.587Z,994.23
2023-02-09T09:12:03.619Z,994.31
2023-02-09T09:13:03.660Z,994.36
2023-02-09T09:14:03.610Z,994.25
2023-02-09T09:15:03.556Z,994.28
2023-02-09T09:16:05.625Z,994.42
2023-02-09T09:17:03.833Z,994.36
2023-02-09T09:18:03.912Z,994.31
2023-02-09T09:19:03.888Z,994.33
2023-02-09T09:20:03.878Z,994.22
2023-02-09T09:21:03.799Z,994.33
2023-02-09T09:22:03.781Z,994.44
2023-02-09T09:23:03.890Z,994.50
2023-02-09T09:24:03.777Z,994.30
2023-02-09T09:25:03.814Z,994.50
2023-02-09T09:26:03.795Z,994.52
2023-02-09T09:27:03.964Z,994.47
2023-02-09T09:28:03.151Z,994.52
2023-02-09T09:29:03.003Z,994.58
2023-02-09T09:30:03.852Z,994.50
2023-02-09T09:31:03.011Z,994.41
2023-02-09T09:32:03.315Z,994.61
2023-02-09T09:33:03.305Z,994.55
2023-02-09T09:34:03.175Z,994.58
2023-02-09T09:35:03.004Z,994.60
2023-02-09T09:36:03.067Z,994.66
2023-02-09T09:37:03.045Z,994.58
2023-02-09T09:38:03.141Z,994.63
2023-02-09T09:39:03.188Z,994.87
2023-02-09T09:40:03.033Z,994.66
2023-02-09T09:41:03.229Z,994.63
2023-02-09T09:42:03.114Z,994.66
2023-02-09T09:43:03.144Z,994.63
2023-02-09T09:44:03.227Z,994.70
2023-02-09T09:45:03.194Z,994.76
2023-02-09T09:46:03.610Z,994.73
2023-02-09T09:47:03.362Z,994.92
2023-02-09T09:48:03.406Z,994.81
2023-02-09T09:49:03.408Z,994.90
2023-02-09T09:50:03.562Z,994.81
2023-02-09T09:51:03.528Z,994.92
2023-02-09T09:52:03.490Z,995.06
2023-02-09T09:53:03.453Z,994.95
2023-02-09T09:54:03.602Z,994.95
2023-02-09T09:55:03.684Z,994.81
2023-02-09T09:56:03.660Z,994.98
2023-02-09T09:57:03.680Z,995.03
2023-02-09T09:58:03.567Z,994.89
2023-02-09T09:59:03.719Z,994.98
2023-02-09T10:00:03.791Z,995.00
2023-02-09T10:01:03.792Z,994.97
2023-02-09T10:02:03.722Z,995.06
2023-02-09T10:03:03.838Z,995.06
2023-02-09T10:04:03.848Z,994.92
2023-02-09T10:05:03.822Z,994.89
2023-02-09T10:06:03.814Z,995.03
2023-02-09T10:07:03.802Z,994.89
2023-02-09T10:08:03.902Z,994.92
2023-02-09T10:09:03.886Z,994.97
2023-02-09T10:10:03.934Z,994.94
2023-02-09T10:11:03.953Z,994.94
2023-02-09T10:12:03.784Z,994.92
2023-02-09T10:13:02.988Z,994.91
2023-02-09T10:14:03.117Z,994.94
2023-02-09T10:15:03.068Z,994.91
2023-02-09T10:16:03.207Z,994.97
2023-02-09T10:17:03.437Z,995.11
2023-02-09T10:18:03.247Z,994.89
2023-02-09T10:19:03.263Z,995.22
2023-02-09T10:20:03.318Z,995.16
2023-02-09T10:21:03.299Z,995.02
2023-02-09T10:22:03.289Z,994.88
2023-02-09T10:23:03.365Z,995.00
2023-02-09T10:24:03.479Z,994.99
2023-02-09T10:25:03.432Z,995.05
2023-02-09T10:26:03.397Z,995.08
2023-02-09T10:27:03.408Z,995.08
2023-02-09T10:28:03.596Z,994.94
2023-02-09T10:29:03.352Z,995.11
2023-02-09T10:30:03.595Z,995.05
2023-02-09T10:31:03.908Z,994.94
2023-02-09T10:32:03.789Z,995.05
2023-02-09T10:33:03.623Z,995.19
2023-02-09T10:34:03.764Z,995.05
2023-02-09T10:35:03.747Z,995.10
2023-02-09T10:36:03.689Z,995.05
2023-02-09T10:37:03.800Z,994.96
2023-02-09T10:38:03.755Z,995.16
2023-02-09T10:39:03.738Z,994.91
2023-02-09T10:40:03.756Z,995.02
2023-02-09T10:41:03.726Z,994.85
2023-02-09T10:42:03.731Z,995.10
2023-02-09T10:43:03.889Z,995.02
2023-02-09T10:44:03.868Z,994.93
2023-02-09T10:45:03.820Z,995.10
2023-02-09T10:46:03.956Z,994.85
2023-02-09T10:47:03.780Z,994.99
2023-02-09T10:48:03.747Z,994.74
2023-02-09T10:49:03.956Z,994.88
2023-02-09T10:50:03.864Z,994.96
2023-02-09T10:51:03.826Z,994.96
2023-02-09T10:52:02.920Z,994.90
2023-02-09T10:53:02.908Z,994.87
2023-02-09T10:54:02.997Z,994.66
2023-02-09T10:55:03.082Z,994.73
2023-02-09T10:56:03.026Z,994.71
2023-02-09T10:57:03.063Z,994.66
2023-02-09T10:58:03.080Z,994.82
2023-02-09T10:59:03.279Z,994.63
2023-02-09T11:00:03.208Z,994.68
2023-02-09T11:01:03.270Z,994.63
2023-02-09T11:02:03.329Z,994.68
2023-02-09T11:03:03.315Z,994.71
2023-02-09T11:04:03.590Z,994.58
2023-02-09T11:05:03.263Z,994.70
2023-02-09T11:06:03.286Z,994.66
2023-02-09T11:07:03.214Z,994.60
2023-02-09T11:08:03.173Z,994.46
2023-02-09T11:09:03.277Z,994.66
2023-02-09T11:10:03.324Z,994.63
2023-02-09T11:11:03.225Z,994.66
2023-02-09T11:12:03.254Z,994.73
2023-02-09T11:13:03.204Z,994.84
2023-02-09T11:14:03.198Z,994.76
2023-02-09T11:15:03.231Z,994.81
2023-02-09T11:16:03.313Z,994.93
2023-02-09T11:17:03.335Z,994.79
2023-02-09T11:18:03.241Z,994.93
2023-02-09T11:19:03.239Z,994.81
2023-02-09T11:20:03.203Z,994.81
2023-02-09T11:21:03.193Z,994.93
2023-02-09T11:22:03.292Z,994.76
2023-02-09T11:23:03.337Z,994.84
2023-02-09T11:24:03.289Z,994.81
2023-02-09T11:25:03.282Z,994.92
2023-02-09T11:26:03.319Z,994.73
2023-02-09T11:27:03.384Z,994.65
2023-02-09T11:28:03.554Z,994.70
2023-02-09T11:29:03.381Z,994.65
2023-02-09T11:30:03.336Z,994.63
2023-02-09T11:31:03.607Z,994.63
2023-02-09T11:32:03.767Z,994.57
2023-02-09T11:33:03.327Z,994.68
2023-02-09T11:34:03.347Z,994.57
2023-02-09T11:35:03.256Z,994.60
2023-02-09T11:36:03.213Z,994.46
2023-02-09T11:37:03.251Z,994.32
2023-02-09T11:38:03.168Z,994.34
2023-02-09T11:39:03.198Z,994.20
2023-02-09T11:40:03.216Z,994.29
2023-02-09T11:41:03.348Z,994.32
2023-02-09T11:42:03.308Z,994.62
2023-02-09T11:43:03.492Z,994.48
2023-02-09T11:44:03.312Z,994.51
2023-02-09T11:45:03.505Z,994.54
2023-02-09T11:46:03.570Z,994.68
2023-02-09T11:47:03.525Z,994.40
2023-02-09T11:48:03.618Z,994.54
2023-02-09T11:49:03.582Z,994.51
2023-02-09T11:50:03.645Z,994.48
2023-02-09T11:51:03.678Z,994.45
2023-02-09T11:52:03.584Z,994.45
2023-02-09T11:53:03.642Z,994.45
2023-02-09T11:54:03.725Z,994.56
2023-02-09T11:55:03.769Z,994.54
2023-02-09T11:56:03.751Z,994.45
2023-02-09T11:57:03.818Z,994.45
2023-02-09T11:58:03.773Z,994.59
2023-02-09T11:59:03.688Z,994.45
2023-02-09T12:00:03.753Z,994.48
2023-02-09T12:01:16.412Z,994.48
2023-02-09T12:02:03.881Z,994.54
2023-02-09T12:03:04.151Z,994.54
2023-02-09T12:04:02.988Z,994.40
2023-02-09T12:05:03.067Z,994.54
2023-02-09T12:06:03.305Z,994.31
2023-02-09T12:07:03.376Z,994.48
2023-02-09T12:08:03.418Z,994.54
2023-02-09T12:09:03.525Z,994.54
2023-02-09T12:10:03.588Z,994.34
2023-02-09T12:11:03.630Z,994.48
2023-02-09T12:12:03.608Z,994.62
2023-02-09T12:13:03.566Z,994.56
2023-02-09T12:14:03.735Z,994.65
2023-02-09T12:15:03.688Z,994.59
2023-02-09T12:16:03.729Z,994.48
2023-02-09T12:17:03.827Z,994.56
2023-02-09T12:18:03.923Z,994.53
2023-02-09T12:19:03.847Z,994.53
2023-02-09T12:20:03.866Z,994.39
2023-02-09T12:21:03.880Z,994.37
2023-02-09T12:22:03.939Z,994.39
2023-02-09T12:23:03.846Z,994.42
2023-02-09T12:24:03.910Z,994.28
2023-02-09T12:25:03.901Z,994.28
2023-02-09T12:26:03.885Z,994.45
2023-02-09T12:27:03.071Z,994.22
2023-02-09T12:28:03.087Z,994.39
2023-02-09T12:29:02.986Z,994.34
2023-02-09T12:30:03.049Z,994.14
2023-02-09T12:31:03.460Z,994.36
2023-02-09T12:32:03.292Z,994.17
2023-02-09T12:33:03.103Z,994.22
2023-02-09T12:34:03.099Z,994.19